createdAt,value
2022-09-06T00:00:29.266Z,65.83
2022-09-06T00:01:29.216Z,65.83
2022-09-06T00:02:29.244Z,65.92
2022-09-06T00:03:30.233Z,65.92
2022-09-06T00:04:29.182Z,66.02
2022-09-06T00:05:29.157Z,66.13
2022-09-06T00:06:29.122Z,66.13
2022-09-06T00:07:29.466Z,66.13
2022-09-06T00:08:29.170Z,66.13
2022-09-06T00:09:29.847Z,66.13
2022-09-06T00:10:30.100Z,66.13
2022-09-06T00:11:29.148Z,66.22
2022-09-06T00:12:29.148Z,66.13
2022-09-06T00:13:29.074Z,66.22
2022-09-06T00:14:29.048Z,66.25
2022-09-06T00:15:30.018Z,66.22
2022-09-06T00:16:30.603Z,66.32
2022-09-06T00:17:29.074Z,66.36
2022-09-06T00:18:28.979Z,66.25
2022-09-06T00:19:29.011Z,66.36
2022-09-06T00:20:29.011Z,66.16
2022-09-06T00:21:29.093Z,66.36
2022-09-06T00:22:29.055Z,66.46
2022-09-06T00:23:28.943Z,66.66
2022-09-06T00:24:28.985Z,66.66
2022-09-06T00:25:28.949Z,66.55
2022-09-06T00:26:29.014Z,66.55
2022-09-06T00:27:28.934Z,66.55
2022-09-06T00:28:29.042Z,66.86
2022-09-06T00:29:28.870Z,66.96
2022-09-06T00:30:29.100Z,67.05
2022-09-06T00:31:28.935Z,67.05
2022-09-06T00:32:28.831Z,67.16
2022-09-06T00:33:28.938Z,67.16
2022-09-06T00:34:28.873Z,67.29
2022-09-06T00:35:28.832Z,67.19
2022-09-06T00:36:28.852Z,67.39
2022-09-06T00:37:28.886Z,67.39
2022-09-06T00:38:28.873Z,67.39
2022-09-06T00:39:28.890Z,67.39
2022-09-06T00:40:28.739Z,67.49
2022-09-06T00:41:28.801Z,67.39
2022-09-06T00:42:29.543Z,67.39
2022-09-06T00:43:28.745Z,67.49
2022-09-06T00:44:28.746Z,67.69
2022-09-06T00:45:28.719Z,67.59
2022-09-06T00:46:28.754Z,67.59
2022-09-06T00:47:28.764Z,67.59
2022-09-06T00:48:28.818Z,67.59
2022-09-06T00:49:28.770Z,67.59
2022-09-06T00:50:29.642Z,67.59
2022-09-06T00:51:28.612Z,67.59
2022-09-06T00:52:28.602Z,67.69
2022-09-06T00:53:28.640Z,67.69
2022-09-06T00:54:28.593Z,67.59
2022-09-06T00:55:28.591Z,67.69
2022-09-06T00:56:28.563Z,67.79
2022-09-06T00:57:28.554Z,67.89
2022-09-06T00:58:28.625Z,67.99
2022-09-06T00:59:28.678Z,67.89
2022-09-06T01:00:28.515Z,67.99
2022-09-06T01:01:28.768Z,67.89
2022-09-06T01:02:28.575Z,67.99
2022-09-06T01:03:28.501Z,67.99
2022-09-06T01:04:28.479Z,67.89
2022-09-06T01:05:28.468Z,68.09
2022-09-06T01:06:28.430Z,67.99
2022-09-06T01:07:28.434Z,68.29
2022-09-06T01:08:28.425Z,68.19
2022-09-06T01:09:28.440Z,68.29
2022-09-06T01:10:28.434Z,68.32
2022-09-06T01:11:28.399Z,68.22
2022-09-06T01:12:28.381Z,68.32
2022-09-06T01:13:28.379Z,68.32
2022-09-06T01:14:28.382Z,68.32
2022-09-06T01:15:28.414Z,68.42
2022-09-06T01:16:28.335Z,68.42
2022-09-06T01:17:28.321Z,68.52
2022-09-06T01:18:28.435Z,68.52
2022-09-06T01:19:28.322Z,68.42
2022-09-06T01:20:28.320Z,68.62
2022-09-06T01:21:28.304Z,68.73
2022-09-06T01:22:28.287Z,68.82
2022-09-06T01:23:28.275Z,68.82
2022-09-06T01:24:28.261Z,68.82
2022-09-06T01:25:28.255Z,69.02
2022-09-06T01:26:28.220Z,69.23
2022-09-06T01:27:28.214Z,69.12
2022-09-06T01:28:28.459Z,69.26
2022-09-06T01:29:28.201Z,69.35
2022-09-06T01:30:28.192Z,69.35
2022-09-06T01:31:28.292Z,69.26
2022-09-06T01:32:28.176Z,69.26
2022-09-06T01:33:28.161Z,69.56
2022-09-06T01:34:28.131Z,69.56
2022-09-06T01:35:28.119Z,69.66
2022-09-06T01:36:28.110Z,69.66
2022-09-06T01:37:28.090Z,69.76
2022-09-06T01:38:28.213Z,69.76
2022-09-06T01:39:28.113Z,70.06
2022-09-06T01:40:28.074Z,70.06
2022-09-06T01:41:28.051Z,70.06
2022-09-06T01:42:28.066Z,70.29
2022-09-06T01:43:28.054Z,70.06
2022-09-06T01:44:28.021Z,70.29
2022-09-06T01:45:28.009Z,70.19
2022-09-06T01:46:28.070Z,70.19
2022-09-06T01:47:27.985Z,70.29
2022-09-06T01:48:28.103Z,70.19
2022-09-06T01:49:27.969Z,70.39
2022-09-06T01:50:27.956Z,70.39
2022-09-06T01:51:27.964Z,70.69
2022-09-06T01:52:27.956Z,70.69
2022-09-06T01:53:27.919Z,70.59
2022-09-06T01:54:27.919Z,70.69
2022-09-06T01:55:27.898Z,70.69
2022-09-06T01:56:27.930Z,70.69
2022-09-06T01:57:27.977Z,70.79
2022-09-06T01:58:28.125Z,70.79
2022-09-06T01:59:27.870Z,70.79
2022-09-06T02:00:27.840Z,70.69
2022-09-06T02:01:27.894Z,70.89
2022-09-06T02:02:27.916Z,71.00
2022-09-06T02:03:27.838Z,71.20
2022-09-06T02:04:27.832Z,71.20
2022-09-06T02:05:27.793Z,71.50
2022-09-06T02:06:27.806Z,71.59
2022-09-06T02:07:27.784Z,71.63
2022-09-06T02:08:27.849Z,71.53
2022-09-06T02:09:27.766Z,71.53
2022-09-06T02:10:27.725Z,71.53
2022-09-06T02:11:27.735Z,71.53
2022-09-06T02:12:27.753Z,71.53
2022-09-06T02:13:27.706Z,71.53
2022-09-06T02:14:27.720Z,71.63
2022-09-06T02:15:27.711Z,71.63
2022-09-06T02:16:27.771Z,71.53
2022-09-06T02:17:27.646Z,71.53
2022-09-06T02:18:27.724Z,71.53
2022-09-06T02:19:27.641Z,71.43
2022-09-06T02:20:27.644Z,71.39
2022-09-06T02:21:27.609Z,71.30
2022-09-06T02:22:27.607Z,71.30
2022-09-06T02:23:27.615Z,71.33
2022-09-06T02:24:27.570Z,71.33
2022-09-06T02:25:27.580Z,71.33
2022-09-06T02:26:27.560Z,71.33
2022-09-06T02:27:27.551Z,71.33
2022-09-06T02:28:27.681Z,71.53
2022-09-06T02:29:27.512Z,71.63
2022-09-06T02:30:27.554Z,71.53
2022-09-06T02:31:27.494Z,71.53
2022-09-06T02:32:27.508Z,71.53
2022-09-06T02:33:27.473Z,71.73
2022-09-06T02:34:27.482Z,71.73
2022-09-06T02:35:27.461Z,71.83
2022-09-06T02:36:27.445Z,71.93
2022-09-06T02:37:27.447Z,72.03
2022-09-06T02:38:27.545Z,72.13
2022-09-06T02:39:27.464Z,72.03
2022-09-06T02:40:27.407Z,72.13
2022-09-06T02:41:27.386Z,72.13
2022-09-06T02:42:27.398Z,72.24
2022-09-06T02:43:27.366Z,72.24
2022-09-06T02:44:27.442Z,72.24
2022-09-06T02:45:27.348Z,72.24
2022-09-06T02:46:27.440Z,72.33
2022-09-06T02:47:27.330Z,72.53
2022-09-06T02:48:27.478Z,72.53
2022-09-06T02:49:27.301Z,72.47
2022-09-06T02:50:27.353Z,72.56
2022-09-06T02:51:27.281Z,72.67
2022-09-06T02:52:27.272Z,72.67
2022-09-06T02:53:27.262Z,72.67
2022-09-06T02:54:27.262Z,72.67
2022-09-06T02:55:27.222Z,72.67
2022-09-06T02:56:27.272Z,72.77
2022-09-06T02:57:27.214Z,72.67
2022-09-06T02:58:27.295Z,72.77
2022-09-06T02:59:27.202Z,72.87
2022-09-06T03:00:28.151Z,72.97
2022-09-06T03:01:27.228Z,72.97
2022-09-06T03:02:27.221Z,72.97
2022-09-06T03:03:27.156Z,72.87
2022-09-06T03:04:27.139Z,72.77
2022-09-06T03:05:27.157Z,72.87
2022-09-06T03:06:27.118Z,72.97
2022-09-06T03:07:27.118Z,72.97
2022-09-06T03:08:27.252Z,72.87
2022-09-06T03:09:27.091Z,72.87
2022-09-06T03:10:27.098Z,72.97
2022-09-06T03:11:27.080Z,73.07
2022-09-06T03:12:27.054Z,73.07
2022-09-06T03:13:27.051Z,73.17
2022-09-06T03:14:27.055Z,73.37
2022-09-06T03:15:27.032Z,73.47
2022-09-06T03:16:27.155Z,73.50
2022-09-06T03:17:27.007Z,73.61
2022-09-06T03:18:27.105Z,73.61
2022-09-06T03:19:27.033Z,73.61
2022-09-06T03:20:26.971Z,73.50
2022-09-06T03:21:26.957Z,73.61
2022-09-06T03:22:26.947Z,73.71
2022-09-06T03:23:26.930Z,73.71
2022-09-06T03:24:26.936Z,73.81
2022-09-06T03:25:26.911Z,73.91
2022-09-06T03:26:26.908Z,73.91
2022-09-06T03:27:26.879Z,73.91
2022-09-06T03:28:27.043Z,73.91
2022-09-06T03:29:26.880Z,73.91
2022-09-06T03:30:26.918Z,74.11
2022-09-06T03:31:26.840Z,74.31
2022-09-06T03:32:26.830Z,74.11
2022-09-06T03:33:26.833Z,74.01
2022-09-06T03:34:26.825Z,74.01
2022-09-06T03:35:26.830Z,74.11
2022-09-06T03:36:29.507Z,74.01
2022-09-06T03:37:26.779Z,74.01
2022-09-06T03:38:26.822Z,73.94
2022-09-06T03:39:26.779Z,73.94
2022-09-06T03:40:26.760Z,73.94
2022-09-06T03:41:26.743Z,73.84
2022-09-06T03:42:26.734Z,74.15
2022-09-06T03:43:26.702Z,74.24
2022-09-06T03:44:26.714Z,74.24
2022-09-06T03:45:26.734Z,74.24
2022-09-06T03:46:26.777Z,74.24
2022-09-06T03:47:26.667Z,74.15
2022-09-06T03:48:26.804Z,74.24
2022-09-06T03:49:26.644Z,74.24
2022-09-06T03:50:27.616Z,74.35
2022-09-06T03:51:26.650Z,74.44
2022-09-06T03:52:27.563Z,74.44
2022-09-06T03:53:26.613Z,74.44
2022-09-06T03:54:26.606Z,74.55
2022-09-06T03:55:26.614Z,74.65
2022-09-06T03:56:26.578Z,74.74
2022-09-06T03:57:26.566Z,74.85
2022-09-06T03:58:26.570Z,74.95
2022-09-06T03:59:26.536Z,74.95
2022-09-06T04:00:26.548Z,74.95
2022-09-06T04:01:26.578Z,75.05
2022-09-06T04:02:26.544Z,74.88
2022-09-06T04:03:26.529Z,74.98
2022-09-06T04:04:26.491Z,75.09
2022-09-06T04:05:26.475Z,75.09
2022-09-06T04:06:27.463Z,75.09
2022-09-06T04:07:26.459Z,75.09
2022-09-06T04:08:26.784Z,75.18
2022-09-06T04:09:26.432Z,75.18
2022-09-06T04:10:26.457Z,75.18
2022-09-06T04:11:26.588Z,74.98
2022-09-06T04:12:26.454Z,75.09
2022-09-06T04:13:26.406Z,75.18
2022-09-06T04:14:26.398Z,75.29
2022-09-06T04:15:26.376Z,75.38
2022-09-06T04:16:26.417Z,75.29
2022-09-06T04:17:26.440Z,75.49
2022-09-06T04:18:26.416Z,75.49
2022-09-06T04:19:26.329Z,75.38
2022-09-06T04:20:26.357Z,75.29
2022-09-06T04:21:26.299Z,75.18
2022-09-06T04:22:26.363Z,75.49
2022-09-06T04:23:26.267Z,75.68
2022-09-06T04:24:26.311Z,75.59
2022-09-06T04:25:26.259Z,75.59
2022-09-06T04:26:26.260Z,75.68
2022-09-06T04:27:26.283Z,75.89
2022-09-06T04:28:26.213Z,75.79
2022-09-06T04:29:26.201Z,75.89
2022-09-06T04:30:26.202Z,75.79
2022-09-06T04:31:26.241Z,75.79
2022-09-06T04:32:26.188Z,75.89
2022-09-06T04:33:26.183Z,75.89
2022-09-06T04:34:26.164Z,75.99
2022-09-06T04:35:26.266Z,75.89
2022-09-06T04:36:26.164Z,75.89
2022-09-06T04:37:26.127Z,75.99
2022-09-06T04:38:26.142Z,76.19
2022-09-06T04:39:26.198Z,76.19
2022-09-06T04:40:26.096Z,76.39
2022-09-06T04:41:26.095Z,76.49
2022-09-06T04:42:26.074Z,76.49
2022-09-06T04:43:26.083Z,76.29
2022-09-06T04:44:26.048Z,76.29
2022-09-06T04:45:26.068Z,76.19
2022-09-06T04:46:26.055Z,76.19
2022-09-06T04:47:26.018Z,76.29
2022-09-06T04:48:26.067Z,76.29
2022-09-06T04:49:26.065Z,76.32
2022-09-06T04:50:25.991Z,76.29
2022-09-06T04:51:26.002Z,76.19
2022-09-06T04:52:29.564Z,76.19
2022-09-06T04:53:25.952Z,76.12
2022-09-06T04:54:25.978Z,76.19
2022-09-06T04:55:25.939Z,76.29
2022-09-06T04:56:25.937Z,76.09
2022-09-06T04:57:25.909Z,76.29
2022-09-06T04:58:25.962Z,76.19
2022-09-06T04:59:25.905Z,75.99
2022-09-06T05:00:25.912Z,75.89
2022-09-06T05:01:25.919Z,76.19
2022-09-06T05:02:25.921Z,76.19
2022-09-06T05:03:25.851Z,76.29
2022-09-06T05:04:25.847Z,76.29
2022-09-06T05:05:25.832Z,76.29
2022-09-06T05:06:46.892Z,76.39
2022-09-06T05:07:25.813Z,76.53
2022-09-06T05:08:25.965Z,76.73
2022-09-06T05:09:25.916Z,76.73
2022-09-06T05:10:25.768Z,76.63
2022-09-06T05:11:25.843Z,76.73
2022-09-06T05:12:25.758Z,76.53
2022-09-06T05:13:25.755Z,76.63
2022-09-06T05:14:25.731Z,76.63
2022-09-06T05:15:25.721Z,76.43
2022-09-06T05:16:25.752Z,76.32
2022-09-06T05:17:25.715Z,76.56
2022-09-06T05:18:25.772Z,76.76
2022-09-06T05:19:25.695Z,76.97
2022-09-06T05:20:25.682Z,77.27
2022-09-06T05:21:25.652Z,77.40
2022-09-06T05:22:26.581Z,77.50
2022-09-06T05:23:25.642Z,77.70
2022-09-06T05:24:25.674Z,77.70
2022-09-06T05:25:25.603Z,77.70
2022-09-06T05:26:25.588Z,77.81
2022-09-06T05:27:25.603Z,77.81
2022-09-06T05:28:25.656Z,77.70
2022-09-06T05:29:29.970Z,77.67
2022-09-06T05:30:26.545Z,77.67
2022-09-06T05:31:25.577Z,77.67
2022-09-06T05:32:25.518Z,77.67
2022-09-06T05:33:25.544Z,77.67
2022-09-06T05:34:25.497Z,77.67
2022-09-06T05:35:25.497Z,77.57
2022-09-06T05:36:25.504Z,77.57
2022-09-06T05:37:25.472Z,77.47
2022-09-06T05:38:29.192Z,77.37
2022-09-06T05:39:25.458Z,77.33
2022-09-06T05:40:25.439Z,77.33
2022-09-06T05:41:25.448Z,77.33
2022-09-06T05:42:25.423Z,77.33
2022-09-06T05:43:25.401Z,77.33
2022-09-06T05:44:25.406Z,77.43
2022-09-06T05:45:25.416Z,77.33
2022-09-06T05:46:25.590Z,77.63
2022-09-06T05:47:26.384Z,77.73
2022-09-06T05:48:25.416Z,77.94
2022-09-06T05:49:25.341Z,77.94
2022-09-06T05:50:25.345Z,77.83
2022-09-06T05:51:25.323Z,77.63
2022-09-06T05:52:25.304Z,77.73
2022-09-06T05:53:25.327Z,77.73
2022-09-06T05:54:25.297Z,77.83
2022-09-06T05:55:25.301Z,77.83
2022-09-06T05:56:25.268Z,77.73
2022-09-06T05:57:25.305Z,77.53
2022-09-06T05:58:25.320Z,77.53
2022-09-06T05:59:25.420Z,77.43
2022-09-06T06:00:25.441Z,77.53
2022-09-06T06:01:25.311Z,77.43
2022-09-06T06:02:25.299Z,77.43
2022-09-06T06:03:25.199Z,77.43
2022-09-06T06:04:25.201Z,77.33
2022-09-06T06:05:25.171Z,77.33
2022-09-06T06:06:26.161Z,77.53
2022-09-06T06:07:25.284Z,77.50
2022-09-06T06:08:25.344Z,77.50
2022-09-06T06:09:25.225Z,77.29
2022-09-06T06:10:25.234Z,77.29
2022-09-06T06:11:25.091Z,77.20
2022-09-06T06:12:25.153Z,77.00
2022-09-06T06:13:25.092Z,77.00
2022-09-06T06:14:25.145Z,76.89
2022-09-06T06:15:25.115Z,76.45
2022-09-06T06:16:25.136Z,76.05
2022-09-06T06:17:25.036Z,75.95
2022-09-06T06:18:25.163Z,75.85
2022-09-06T06:19:25.028Z,75.95
2022-09-06T06:20:27.904Z,75.82
2022-09-06T06:21:24.994Z,75.62
2022-09-06T06:22:25.002Z,75.21
2022-09-06T06:23:24.957Z,75.01
2022-09-06T06:24:24.986Z,75.01
2022-09-06T06:25:24.958Z,74.81
2022-09-06T06:26:24.939Z,74.61
2022-09-06T06:27:24.929Z,74.57
2022-09-06T06:28:24.959Z,74.48
2022-09-06T06:29:24.904Z,74.18
2022-09-06T06:30:25.129Z,74.48
2022-09-06T06:31:24.978Z,74.48
2022-09-06T06:32:25.477Z,74.48
2022-09-06T06:33:24.884Z,74.37
2022-09-06T06:34:24.841Z,74.18
2022-09-06T06:35:24.840Z,74.18
2022-09-06T06:36:24.844Z,74.18
2022-09-06T06:37:24.818Z,74.27
2022-09-06T06:38:24.842Z,74.27
2022-09-06T06:39:24.861Z,74.37
2022-09-06T06:40:24.786Z,74.27
2022-09-06T06:41:24.765Z,74.27
2022-09-06T06:42:24.831Z,74.48
2022-09-06T06:43:24.806Z,74.48
2022-09-06T06:44:24.807Z,74.48
2022-09-06T06:45:24.794Z,74.48
2022-09-06T06:46:24.730Z,74.57
2022-09-06T06:47:24.714Z,74.68
2022-09-06T06:48:24.695Z,74.88
2022-09-06T06:49:24.796Z,74.77
2022-09-06T06:50:24.686Z,74.77
2022-09-06T06:51:24.691Z,74.68
2022-09-06T06:52:24.719Z,74.68
2022-09-06T06:53:24.644Z,74.57
2022-09-06T06:54:24.628Z,74.48
2022-09-06T06:55:24.622Z,74.54
2022-09-06T06:56:24.619Z,74.34
2022-09-06T06:57:24.680Z,74.34
2022-09-06T06:58:24.637Z,74.34
2022-09-06T06:59:24.603Z,74.44
2022-09-06T07:00:28.157Z,74.34
2022-09-06T07:01:24.703Z,74.34
2022-09-06T07:02:24.620Z,74.34
2022-09-06T07:03:24.537Z,74.34
2022-09-06T07:04:24.525Z,74.34
2022-09-06T07:07:34.407Z,74.84
2022-09-06T07:08:25.597Z,74.94
2022-09-06T07:09:24.595Z,74.84
2022-09-06T07:11:25.470Z,75.14
2022-09-06T07:12:24.491Z,75.34
2022-09-06T07:13:25.257Z,75.24
2022-09-06T07:14:24.420Z,75.24
2022-09-06T07:15:24.463Z,75.34
2022-09-06T07:16:24.521Z,74.94
2022-09-06T07:17:24.397Z,74.51
2022-09-06T07:18:24.385Z,74.01
2022-09-06T07:20:25.436Z,73.27
2022-09-06T07:21:39.819Z,72.86
2022-09-06T07:22:25.352Z,72.73
2022-09-06T07:24:25.310Z,73.16
2022-09-06T07:25:24.295Z,73.27
2022-09-06T07:26:24.302Z,73.36
2022-09-06T07:28:25.297Z,73.86
2022-09-06T07:29:24.338Z,73.77
2022-09-06T07:30:24.393Z,73.57
2022-09-06T07:32:25.236Z,73.67
2022-09-06T07:33:24.239Z,73.77
2022-09-06T07:34:24.196Z,73.86
2022-09-06T07:35:24.204Z,73.86
2022-09-06T07:36:24.190Z,73.86
2022-09-06T07:37:24.186Z,73.77
2022-09-06T07:38:24.186Z,73.97
2022-09-06T07:39:24.213Z,74.17
2022-09-06T07:40:24.155Z,74.47
2022-09-06T07:41:24.126Z,74.43
2022-09-06T07:42:24.261Z,74.23
2022-09-06T07:43:24.321Z,73.73
2022-09-06T07:44:24.122Z,73.73
2022-09-06T07:45:24.079Z,73.73
2022-09-06T07:46:24.103Z,73.73
2022-09-06T07:48:25.121Z,73.53
2022-09-06T07:49:24.043Z,73.53
2022-09-06T07:51:25.018Z,73.53
2022-09-06T07:53:30.855Z,73.73
2022-09-06T07:54:32.288Z,73.83
2022-09-06T07:55:25.046Z,74.13
2022-09-06T07:56:24.028Z,74.23
2022-09-06T07:57:23.946Z,73.93
2022-09-06T07:58:23.955Z,73.93
2022-09-06T07:59:23.938Z,73.93
2022-09-06T08:00:23.956Z,73.83
2022-09-06T08:01:23.970Z,73.83
2022-09-06T08:02:23.962Z,74.03
2022-09-06T08:03:23.955Z,73.83
2022-09-06T08:04:23.921Z,73.93
2022-09-06T08:06:24.946Z,74.00
2022-09-06T08:07:39.493Z,73.70
2022-09-06T08:09:24.821Z,73.39
2022-09-06T08:10:23.892Z,73.19
2022-09-06T08:11:23.798Z,72.86
2022-09-06T08:12:23.903Z,72.76
2022-09-06T08:13:23.952Z,72.76
2022-09-06T08:14:23.770Z,72.46
2022-09-06T08:15:23.764Z,72.16
2022-09-06T08:16:24.528Z,71.96
2022-09-06T08:17:23.861Z,71.33
2022-09-06T08:18:23.725Z,71.73
2022-09-06T08:19:23.713Z,71.62
2022-09-06T08:20:23.704Z,71.53
2022-09-06T08:21:23.700Z,71.42
2022-09-06T08:22:23.678Z,70.79
2022-09-06T08:23:23.863Z,70.39
2022-09-06T08:24:23.668Z,70.29
2022-09-06T08:25:23.637Z,69.96
2022-09-06T08:26:23.618Z,69.76
2022-09-06T08:27:23.627Z,69.26
2022-09-06T08:28:28.146Z,69.53
2022-09-06T08:29:25.555Z,69.82
2022-09-06T08:30:23.668Z,69.13
2022-09-06T08:31:23.586Z,69.13
2022-09-06T08:32:23.567Z,68.73
2022-09-06T08:33:23.610Z,67.99
2022-09-06T08:34:23.521Z,67.69
2022-09-06T08:35:23.534Z,67.40
2022-09-06T08:36:23.507Z,67.46
2022-09-06T08:37:25.163Z,67.80
2022-09-06T08:38:23.501Z,67.60
2022-09-06T08:39:23.533Z,67.49
2022-09-06T08:40:23.496Z,67.49
2022-09-06T08:41:23.444Z,67.69
2022-09-06T08:42:23.467Z,67.60
2022-09-06T08:43:23.465Z,67.49
2022-09-06T08:45:24.432Z,66.96
2022-09-06T08:46:23.429Z,66.47
2022-09-06T08:47:23.453Z,65.97
2022-09-06T08:48:24.397Z,65.94
2022-09-06T08:49:23.406Z,66.03
2022-09-06T08:50:23.366Z,66.03
2022-09-06T08:51:23.367Z,66.73
2022-09-06T08:52:23.371Z,67.33
2022-09-06T08:53:23.359Z,67.03
2022-09-06T08:54:23.988Z,66.93
2022-09-06T08:55:23.315Z,66.77
2022-09-06T08:56:23.295Z,66.56
2022-09-06T08:57:23.281Z,66.66
2022-09-06T08:58:25.295Z,66.77
2022-09-06T08:59:23.309Z,66.03
2022-09-06T09:00:23.275Z,65.94
2022-09-06T09:01:23.244Z,66.13
2022-09-06T09:02:23.298Z,66.03
2022-09-06T09:03:23.394Z,65.83
2022-09-06T09:04:23.226Z,65.94
2022-09-06T09:05:23.185Z,65.83
2022-09-06T09:06:23.246Z,65.44
2022-09-06T09:07:23.176Z,65.83
2022-09-06T09:08:23.195Z,65.44
2022-09-06T09:09:23.156Z,65.34
2022-09-06T09:10:23.143Z,65.64
2022-09-06T09:11:23.225Z,65.94
2022-09-06T09:12:23.126Z,65.83
2022-09-06T09:13:23.198Z,65.64
2022-09-06T09:14:23.119Z,65.61
2022-09-06T09:15:23.079Z,65.64
2022-09-06T09:16:23.153Z,65.73
2022-09-06T09:17:23.081Z,65.53
2022-09-06T09:18:23.193Z,65.23
2022-09-06T09:19:23.051Z,65.34
2022-09-06T09:20:23.041Z,65.73
2022-09-06T09:21:26.814Z,65.73
2022-09-06T09:22:24.013Z,65.64
2022-09-06T09:23:22.993Z,65.73
2022-09-06T09:24:22.988Z,65.44
2022-09-06T09:25:23.003Z,65.14
2022-09-06T09:26:22.983Z,64.94
2022-09-06T09:27:22.964Z,64.74
2022-09-06T09:28:22.993Z,64.84
2022-09-06T09:29:27.941Z,64.74
2022-09-06T09:31:23.951Z,65.01
2022-09-06T09:32:22.910Z,64.31
2022-09-06T09:33:23.005Z,64.81
2022-09-06T09:34:22.888Z,64.21
2022-09-06T09:35:22.912Z,64.01
2022-09-06T09:36:22.860Z,64.01
2022-09-06T09:38:23.897Z,64.11
2022-09-06T09:39:22.816Z,64.07
2022-09-06T09:40:22.871Z,63.98
2022-09-06T09:41:22.798Z,63.98
2022-09-06T09:42:22.793Z,63.98
2022-09-06T09:43:22.781Z,64.18
2022-09-06T09:44:22.775Z,64.07
2022-09-06T09:45:22.772Z,63.78
2022-09-06T09:46:22.828Z,63.58
2022-09-06T09:47:22.747Z,63.25
2022-09-06T09:48:22.757Z,62.85
2022-09-06T09:49:22.729Z,62.45
2022-09-06T09:50:22.709Z,61.96
2022-09-06T09:51:26.509Z,61.76
2022-09-06T09:52:22.683Z,61.66
2022-09-06T09:53:22.668Z,61.96
2022-09-06T09:54:22.696Z,62.35
2022-09-06T09:55:22.646Z,62.35
2022-09-06T09:56:22.646Z,62.23
2022-09-06T09:57:22.627Z,62.13
2022-09-06T09:58:22.676Z,61.53
2022-09-06T09:59:22.618Z,61.40
2022-09-06T10:00:22.628Z,61.10
2022-09-06T10:01:22.592Z,60.27
2022-09-06T10:02:22.573Z,59.78
2022-09-06T10:03:22.709Z,59.48
2022-09-06T10:05:23.537Z,59.85
2022-09-06T10:07:23.573Z,58.65
2022-09-06T10:08:22.546Z,58.95
2022-09-06T10:09:22.500Z,58.62
2022-09-06T10:10:22.503Z,58.43
2022-09-06T10:11:22.524Z,58.43
2022-09-06T10:12:22.468Z,58.03
2022-09-06T10:13:22.459Z,58.45
2022-09-06T10:14:22.495Z,58.26
2022-09-06T10:15:22.437Z,57.86
2022-09-06T10:16:22.468Z,57.73
2022-09-06T10:17:22.431Z,57.34
2022-09-06T10:18:22.476Z,57.83
2022-09-06T10:19:22.425Z,57.73
2022-09-06T10:20:22.399Z,58.56
2022-09-06T10:21:22.420Z,58.36
2022-09-06T10:22:22.347Z,58.16
2022-09-06T10:25:22.347Z,57.96
2022-09-06T10:26:22.304Z,58.16
2022-09-06T10:27:22.290Z,57.06
2022-09-06T10:28:22.321Z,56.96
2022-09-06T10:29:22.281Z,56.67
2022-09-06T10:30:22.285Z,56.37
2022-09-06T10:31:22.348Z,56.07
2022-09-06T10:32:22.255Z,56.27
2022-09-06T10:33:22.243Z,56.14
2022-09-06T10:34:22.217Z,56.96
2022-09-06T10:35:22.216Z,57.36
2022-09-06T10:36:22.191Z,57.17
2022-09-06T10:37:22.223Z,56.44
2022-09-06T10:38:22.197Z,57.06
2022-09-06T10:39:22.166Z,56.54
2022-09-06T10:40:22.162Z,55.44
2022-09-06T10:41:22.168Z,56.24
2022-09-06T10:42:22.134Z,56.84
2022-09-06T10:43:22.133Z,57.04
2022-09-06T10:44:22.105Z,56.74
2022-09-06T10:45:22.099Z,55.94
2022-09-06T10:46:22.151Z,55.44
2022-09-06T10:47:22.169Z,55.94
2022-09-06T10:48:22.086Z,55.94
2022-09-06T10:49:22.067Z,55.94
2022-09-06T10:50:22.688Z,56.12
2022-09-06T10:51:22.047Z,55.82
2022-09-06T10:52:22.048Z,55.82
2022-09-06T10:53:22.045Z,55.32
2022-09-06T10:54:22.026Z,55.22
2022-09-06T10:55:21.990Z,55.12
2022-09-06T10:56:22.007Z,55.02
2022-09-06T10:58:23.103Z,54.70
2022-09-06T10:59:38.341Z,54.80
2022-09-06T11:00:22.944Z,54.80
2022-09-06T11:01:21.999Z,54.80
2022-09-06T11:02:22.033Z,54.90
2022-09-06T11:04:22.897Z,54.30
2022-09-06T11:06:26.723Z,53.31
2022-09-06T11:07:22.812Z,52.72
2022-09-06T11:09:22.860Z,53.61
2022-09-06T11:10:22.793Z,53.70
2022-09-06T11:11:22.784Z,53.11
2022-09-06T11:12:21.815Z,52.81
2022-09-06T11:13:21.806Z,52.91
2022-09-06T11:14:21.791Z,53.01
2022-09-06T11:15:21.763Z,53.51
2022-09-06T11:16:21.831Z,53.88
2022-09-06T11:17:21.775Z,52.98
2022-09-06T11:18:21.740Z,52.89
2022-09-06T11:19:21.727Z,53.08
2022-09-06T11:20:21.716Z,53.28
2022-09-06T11:21:21.721Z,52.56
2022-09-06T11:22:21.689Z,52.76
2022-09-06T11:23:21.705Z,52.66
2022-09-06T11:24:21.676Z,52.37
2022-09-06T11:25:21.661Z,52.76
2022-09-06T11:26:21.638Z,52.96
2022-09-06T11:27:21.635Z,52.47
2022-09-06T11:28:21.647Z,52.07
2022-09-06T11:29:21.619Z,52.07
2022-09-06T11:30:21.593Z,51.37
2022-09-06T11:32:22.591Z,51.87
2022-09-06T11:33:21.593Z,51.28
2022-09-06T11:34:21.573Z,51.67
2022-09-06T11:35:21.554Z,51.97
2022-09-06T11:36:21.537Z,51.87
2022-09-06T11:37:21.521Z,51.47
2022-09-06T11:38:21.513Z,51.37
2022-09-06T11:41:21.485Z,51.87
2022-09-06T11:42:21.491Z,51.97
2022-09-06T11:43:21.483Z,52.37
2022-09-06T11:44:21.448Z,51.94
2022-09-06T11:45:22.412Z,51.75
2022-09-06T11:46:21.484Z,51.35
2022-09-06T11:47:22.398Z,51.25
2022-09-06T11:48:22.354Z,50.95
2022-09-06T11:49:21.439Z,51.32
2022-09-06T11:50:21.388Z,51.72
2022-09-06T11:51:21.370Z,51.62
2022-09-06T11:52:21.359Z,51.42
2022-09-06T11:53:21.369Z,51.12
2022-09-06T11:54:21.338Z,50.71
2022-09-06T11:55:22.910Z,50.41
2022-09-06T11:56:21.351Z,50.41
2022-09-06T11:57:21.323Z,49.91
2022-09-06T11:58:21.312Z,49.69
2022-09-06T11:59:21.280Z,49.69
2022-09-06T12:00:21.284Z,49.49
2022-09-06T12:01:21.273Z,49.29
2022-09-06T12:02:21.382Z,48.90
2022-09-06T12:04:22.226Z,49.89
2022-09-06T12:05:21.226Z,49.49
2022-09-06T12:06:21.231Z,49.40
2022-09-06T12:07:21.242Z,49.17
2022-09-06T12:08:21.216Z,49.37
2022-09-06T12:09:21.197Z,49.07
2022-09-06T12:10:21.170Z,49.10
2022-09-06T12:11:21.159Z,48.70
2022-09-06T12:12:21.178Z,48.80
2022-09-06T12:13:21.129Z,49.00
2022-09-06T12:14:21.147Z,49.19
2022-09-06T12:15:21.123Z,48.80
2022-09-06T12:16:21.199Z,48.70
2022-09-06T12:17:21.097Z,48.88
2022-09-06T12:18:21.072Z,48.68
2022-09-06T12:19:21.075Z,47.89
2022-09-06T12:20:21.079Z,48.08
2022-09-06T12:21:21.048Z,48.08
2022-09-06T12:22:21.040Z,48.18
2022-09-06T12:23:21.026Z,48.08
2022-09-06T12:24:21.017Z,47.86
2022-09-06T12:25:21.027Z,47.96
2022-09-06T12:26:21.010Z,47.78
2022-09-06T12:27:20.979Z,48.08
2022-09-06T12:28:20.981Z,47.96
2022-09-06T12:29:20.966Z,48.46
2022-09-06T12:30:20.997Z,48.55
2022-09-06T12:31:21.003Z,48.26
2022-09-06T12:32:20.933Z,48.18
2022-09-06T12:33:20.929Z,48.08
2022-09-06T12:34:20.910Z,48.28
2022-09-06T12:36:21.880Z,48.16
2022-09-06T12:37:20.901Z,47.56
2022-09-06T12:38:20.882Z,47.07
2022-09-06T12:39:20.864Z,46.97
2022-09-06T12:40:20.835Z,47.27
2022-09-06T12:41:20.832Z,47.07
2022-09-06T12:42:20.823Z,47.27
2022-09-06T12:43:20.827Z,47.17
2022-09-06T12:44:20.805Z,47.66
2022-09-06T12:45:23.999Z,47.86
2022-09-06T12:46:21.843Z,47.56
2022-09-06T12:47:20.793Z,47.47
2022-09-06T12:48:20.765Z,46.97
2022-09-06T12:49:20.777Z,47.17
2022-09-06T12:50:20.790Z,46.88
2022-09-06T12:51:20.731Z,47.07
2022-09-06T12:52:20.709Z,46.18
2022-09-06T12:53:23.326Z,45.89
2022-09-06T12:54:21.645Z,45.98
2022-09-06T12:55:21.628Z,45.98
2022-09-06T12:56:21.641Z,46.28
2022-09-06T12:57:21.631Z,45.68
2022-09-06T12:58:20.652Z,45.67
2022-09-06T12:59:20.644Z,45.37
2022-09-06T13:00:20.622Z,45.17
2022-09-06T13:01:20.789Z,45.17
2022-09-06T13:02:20.749Z,44.97
2022-09-06T13:03:20.604Z,45.07
2022-09-06T13:04:20.593Z,44.48
2022-09-06T13:05:20.575Z,44.38
2022-09-06T13:06:26.639Z,44.68
2022-09-06T13:07:21.561Z,44.78
2022-09-06T13:08:20.544Z,44.65
2022-09-06T13:09:20.535Z,44.65
2022-09-06T13:10:20.537Z,44.65
2022-09-06T13:11:20.532Z,44.16
2022-09-06T13:12:20.492Z,44.56
2022-09-06T13:13:20.501Z,44.46
2022-09-06T13:14:20.492Z,44.24
2022-09-06T13:15:20.462Z,43.84
2022-09-06T13:16:20.507Z,43.74
2022-09-06T13:17:20.445Z,43.35
2022-09-06T13:18:20.449Z,43.05
2022-09-06T13:19:20.421Z,43.74
2022-09-06T13:20:20.413Z,42.96